sensor_id;sensor_type;location;lat;lon;timestamp;pressure;altitude;pressure_sealevel;temperature;humidity
44027;BME280;29696;55.698;37.460;2022-07-15T00:00:51;98441.69;;;15.87;92.96
44027;BME280;29696;55.698;37.460;2022-07-15T00:03:17;98443.72;;;15.85;92.91
44027;BME280;29696;55.698;37.460;2022-07-15T00:05:44;98440.44;;;15.83;92.57
44027;BME280;29696;55.698;37.460;2022-07-15T00:08:11;98442.91;;;15.85;92.56
44027;BME280;29696;55.698;37.460;2022-07-15T00:10:37;98438.38;;;15.79;92.37
44027;BME280;29696;55.698;37.460;2022-07-15T00:13:03;98433.84;;;15.79;92.04
44027;BME280;29696;55.698;37.460;2022-07-15T00:15:31;98431.00;;;15.81;92.07
44027;BME280;29696;55.698;37.460;2022-07-15T00:17:58;98433.47;;;15.82;92.13
44027;BME280;29696;55.698;37.460;2022-07-15T00:20:29;98436.97;;;15.83;92.09
44027;BME280;29696;55.698;37.460;2022-07-15T00:23:03;98439.41;;;15.84;92.03
44027;BME280;29696;55.698;37.460;2022-07-15T00:25:30;98438.59;;;15.84;91.68
44027;BME280;29696;55.698;37.460;2022-07-15T00:28:01;98443.53;;;15.87;91.87
44027;BME280;29696;55.698;37.460;2022-07-15T00:30:34;98440.25;;;15.85;91.70
44027;BME280;29696;55.698;37.460;2022-07-15T00:33:01;98422.78;;;15.75;91.49
44027;BME280;29696;55.698;37.460;2022-07-15T00:35:29;98439.19;;;15.79;91.47
44027;BME280;29696;55.698;37.460;2022-07-15T00:37:55;98435.09;;;15.77;91.31
44027;BME280;29696;55.698;37.460;2022-07-15T00:40:22;98438.97;;;15.74;90.98
44027;BME280;29696;55.698;37.460;2022-07-15T00:42:48;98436.47;;;15.72;90.90
44027;BME280;29696;55.698;37.460;2022-07-15T00:45:19;98445.94;;;15.75;91.22
44027;BME280;29696;55.698;37.460;2022-07-15T00:47:49;98447.13;;;15.72;91.61
44027;BME280;29696;55.698;37.460;2022-07-15T00:50:17;98445.50;;;15.71;91.44
44027;BME280;29696;55.698;37.460;2022-07-15T00:52:45;98444.06;;;15.69;91.39
44027;BME280;29696;55.698;37.460;2022-07-15T00:55:13;98445.69;;;15.70;91.37
44027;BME280;29696;55.698;37.460;2022-07-15T00:57:43;98442.03;;;15.71;91.69
44027;BME280;29696;55.698;37.460;2022-07-15T01:00:11;98444.81;;;15.63;91.34
44027;BME280;29696;55.698;37.460;2022-07-15T01:02:40;98436.78;;;15.56;91.50
44027;BME280;29696;55.698;37.460;2022-07-15T01:05:08;98440.22;;;15.50;91.56
44027;BME280;29696;55.698;37.460;2022-07-15T01:07:37;98448.78;;;15.45;91.68
44027;BME280;29696;55.698;37.460;2022-07-15T01:10:07;98447.53;;;15.41;91.87
44027;BME280;29696;55.698;37.460;2022-07-15T01:12:34;98466.16;;;15.41;92.11
44027;BME280;29696;55.698;37.460;2022-07-15T01:15:05;98467.56;;;15.37;92.25
44027;BME280;29696;55.698;37.460;2022-07-15T01:17:32;98468.31;;;15.31;92.20
44027;BME280;29696;55.698;37.460;2022-07-15T01:19:59;98469.91;;;15.25;92.34
44027;BME280;29696;55.698;37.460;2022-07-15T01:22:30;98477.72;;;15.27;92.77
44027;BME280;29696;55.698;37.460;2022-07-15T01:24:56;98478.09;;;15.24;92.66
44027;BME280;29696;55.698;37.460;2022-07-15T01:27:26;98480.78;;;15.24;92.76
44027;BME280;29696;55.698;37.460;2022-07-15T01:29:54;98482.34;;;15.18;92.60
44027;BME280;29696;55.698;37.460;2022-07-15T01:32:22;98493.22;;;15.17;92.65
44027;BME280;29696;55.698;37.460;2022-07-15T01:34:50;98496.84;;;15.16;92.83
44027;BME280;29696;55.698;37.460;2022-07-15T01:37:19;98502.38;;;15.14;93.24
44027;BME280;29696;55.698;37.460;2022-07-15T01:39:52;98499.91;;;15.13;93.40
44027;BME280;29696;55.698;37.460;2022-07-15T01:42:19;98502.38;;;15.14;93.45
44027;BME280;29696;55.698;37.460;2022-07-15T01:44:45;98500.72;;;15.13;93.15
44027;BME280;29696;55.698;37.460;2022-07-15T01:47:12;98497.25;;;15.13;93.16
44027;BME280;29696;55.698;37.460;2022-07-15T01:49:39;98490.72;;;15.15;93.43
44027;BME280;29696;55.698;37.460;2022-07-15T01:52:31;98490.72;;;15.15;93.79
44027;BME280;29696;55.698;37.460;2022-07-15T01:54:57;98486.22;;;15.16;93.50
44027;BME280;29696;55.698;37.460;2022-07-15T01:57:23;98480.47;;;15.12;93.48
44027;BME280;29696;55.698;37.460;2022-07-15T01:59:54;98483.31;;;15.11;93.12
44027;BME280;29696;55.698;37.460;2022-07-15T02:02:31;98494.78;;;15.11;93.24
44027;BME280;29696;55.698;37.460;2022-07-15T02:04:57;98493.97;;;15.11;93.55
44027;BME280;29696;55.698;37.460;2022-07-15T02:07:23;98498.44;;;15.10;93.55
44027;BME280;29696;55.698;37.460;2022-07-15T02:09:50;98499.47;;;15.09;93.53
44027;BME280;29696;55.698;37.460;2022-07-15T02:12:16;98505.59;;;15.10;93.50
44027;BME280;29696;55.698;37.460;2022-07-15T02:14:48;98508.09;;;15.11;93.44
44027;BME280;29696;55.698;37.460;2022-07-15T02:17:15;98503.75;;;15.10;92.97
44027;BME280;29696;55.698;37.460;2022-07-15T02:19:42;98518.53;;;15.13;92.65
44027;BME280;29696;55.698;37.460;2022-07-15T02:22:09;98517.53;;;15.14;92.17
44027;BME280;29696;55.698;37.460;2022-07-15T02:24:35;98511.84;;;15.17;91.76
44027;BME280;29696;55.698;37.460;2022-07-15T02:27:02;98511.25;;;15.21;91.56
44027;BME280;29696;55.698;37.460;2022-07-15T02:29:28;98507.63;;;15.29;91.39
44027;BME280;29696;55.698;37.460;2022-07-15T02:31:55;98503.78;;;15.60;90.43
44027;BME280;29696;55.698;37.460;2022-07-15T02:34:22;98509.22;;;15.73;89.48
44027;BME280;29696;55.698;37.460;2022-07-15T02:36:48;98507.56;;;15.72;88.08
44027;BME280;29696;55.698;37.460;2022-07-15T02:39:15;98512.41;;;15.90;87.71
44027;BME280;29696;55.698;37.460;2022-07-15T02:41:42;98513.06;;;16.33;86.33
44027;BME280;29696;55.698;37.460;2022-07-15T02:44:12;98501.97;;;16.91;83.19
44027;BME280;29696;55.698;37.460;2022-07-15T02:46:41;98513.13;;;17.54;80.09
44027;BME280;29696;55.698;37.460;2022-07-15T02:49:09;98516.94;;;18.18;77.71
44027;BME280;29696;55.698;37.460;2022-07-15T02:51:38;98520.66;;;18.76;74.41
44027;BME280;29696;55.698;37.460;2022-07-15T02:54:06;98513.25;;;19.34;71.83
44027;BME280;29696;55.698;37.460;2022-07-15T02:56:37;98515.69;;;19.93;70.21
44027;BME280;29696;55.698;37.460;2022-07-15T02:59:03;98511.31;;;20.35;67.49
44027;BME280;29696;55.698;37.460;2022-07-15T03:01:30;98510.97;;;20.80;66.24
44027;BME280;29696;55.698;37.460;2022-07-15T03:04:00;98503.97;;;20.79;65.62
44027;BME280;29696;55.698;37.460;2022-07-15T03:06:26;98518.31;;;21.15;63.79
44027;BME280;29696;55.698;37.460;2022-07-15T03:08:53;98530.25;;;21.73;61.94
44027;BME280;29696;55.698;37.460;2022-07-15T03:11:20;98534.31;;;21.63;61.82
44027;BME280;29696;55.698;37.460;2022-07-15T03:13:48;98534.31;;;22.22;59.54
44027;BME280;29696;55.698;37.460;2022-07-15T03:16:15;98541.09;;;22.37;58.25
44027;BME280;29696;55.698;37.460;2022-07-15T03:18:45;98540.28;;;22.01;59.67
44027;BME280;29696;55.698;37.460;2022-07-15T03:21:12;98552.19;;;21.58;60.88
44027;BME280;29696;55.698;37.460;2022-07-15T03:23:38;98552.19;;;21.16;61.54
44027;BME280;29696;55.698;37.460;2022-07-15T03:26:04;98546.06;;;20.79;62.64
44027;BME280;29696;55.698;37.460;2022-07-15T03:28:31;98545.66;;;20.45;64.17
44027;BME280;29696;55.698;37.460;2022-07-15T03:30:58;98549.50;;;20.12;64.95
44027;BME280;29696;55.698;37.460;2022-07-15T03:33:25;98551.19;;;19.88;65.08
44027;BME280;29696;55.698;37.460;2022-07-15T03:35:52;98552.94;;;19.76;66.34
44027;BME280;29696;55.698;37.460;2022-07-15T03:38:21;98550.91;;;19.96;66.72
44027;BME280;29696;55.698;37.460;2022-07-15T03:40:47;98562.38;;;21.79;61.76
44027;BME280;29696;55.698;37.460;2022-07-15T03:43:14;98568.94;;;23.23;56.42
44027;BME280;29696;55.698;37.460;2022-07-15T03:45:45;98561.63;;;24.42;52.97
44027;BME280;29696;55.698;37.460;2022-07-15T03:48:12;98561.56;;;25.57;49.41
44027;BME280;29696;55.698;37.460;2022-07-15T03:50:38;98557.16;;;26.62;47.05
44027;BME280;29696;55.698;37.460;2022-07-15T03:53:04;98561.69;;;27.45;44.22
44027;BME280;29696;55.698;37.460;2022-07-15T03:55:31;98550.50;;;28.29;42.26
44027;BME280;29696;55.698;37.460;2022-07-15T03:57:57;98563.44;;;28.67;41.17
44027;BME280;29696;55.698;37.460;2022-07-15T04:00:24;98563.63;;;29.31;40.14
44027;BME280;29696;55.698;37.460;2022-07-15T04:02:50;98576.19;;;29.66;38.48
44027;BME280;29696;55.698;37.460;2022-07-15T04:05:16;98576.00;;;30.45;37.52
44027;BME280;29696;55.698;37.460;2022-07-15T04:07:43;98576.38;;;31.24;36.04
44027;BME280;29696;55.698;37.460;2022-07-15T04:10:09;98573.16;;;31.74;34.72
44027;BME280;29696;55.698;37.460;2022-07-15T04:12:37;98568.13;;;32.27;33.74
44027;BME280;29696;55.698;37.460;2022-07-15T04:15:04;98578.06;;;32.79;33.05
44027;BME280;29696;55.698;37.460;2022-07-15T04:17:31;98580.81;;;33.29;31.99
44027;BME280;29696;55.698;37.460;2022-07-15T04:19:59;98579.47;;;33.62;31.46
44027;BME280;29696;55.698;37.460;2022-07-15T04:22:25;98592.28;;;33.98;30.67
44027;BME280;29696;55.698;37.460;2022-07-15T04:24:52;98584.69;;;34.18;30.34
44027;BME280;29696;55.698;37.460;2022-07-15T04:27:18;98592.66;;;34.68;29.67
44027;BME280;29696;55.698;37.460;2022-07-15T04:29:45;98589.06;;;35.25;28.74
44027;BME280;29696;55.698;37.460;2022-07-15T04:32:13;98598.63;;;35.27;28.33
44027;BME280;29696;55.698;37.460;2022-07-15T04:34:44;98609.75;;;35.74;27.79
44027;BME280;29696;55.698;37.460;2022-07-15T04:37:10;98611.81;;;35.95;27.21
44027;BME280;29696;55.698;37.460;2022-07-15T04:39:41;98613.84;;;36.32;26.93
44027;BME280;29696;55.698;37.460;2022-07-15T04:42:07;98622.44;;;37.08;25.82
44027;BME280;29696;55.698;37.460;2022-07-15T04:44:36;98623.44;;;37.24;25.84
44027;BME280;29696;55.698;37.460;2022-07-15T04:47:05;98609.34;;;37.67;24.88
44027;BME280;29696;55.698;37.460;2022-07-15T04:49:43;98625.19;;;37.71;24.90
44027;BME280;29696;55.698;37.460;2022-07-15T04:52:30;98632.69;;;38.03;24.25
44027;BME280;29696;55.698;37.460;2022-07-15T04:54:57;98641.22;;;38.23;23.59
44027;BME280;29696;55.698;37.460;2022-07-15T04:57:24;98631.66;;;38.66;23.67
44027;BME280;29696;55.698;37.460;2022-07-15T04:59:50;98630.41;;;39.00;22.78
44027;BME280;29696;55.698;37.460;2022-07-15T05:02:17;98635.16;;;39.40;23.13
44027;BME280;29696;55.698;37.460;2022-07-15T05:04:47;98631.53;;;39.64;22.43
44027;BME280;29696;55.698;37.460;2022-07-15T05:07:14;98633.25;;;39.40;22.83
44027;BME280;29696;55.698;37.460;2022-07-15T05:09:43;98640.56;;;39.89;22.31
44027;BME280;29696;55.698;37.460;2022-07-15T05:12:11;98627.94;;;39.35;22.33
44027;BME280;29696;55.698;37.460;2022-07-15T05:14:48;98614.56;;;39.78;21.89
44027;BME280;29696;55.698;37.460;2022-07-15T05:17:15;98605.78;;;40.04;21.35
44027;BME280;29696;55.698;37.460;2022-07-15T05:19:43;98606.50;;;40.01;21.65
44027;BME280;29696;55.698;37.460;2022-07-15T05:22:17;98602.59;;;41.71;20.46
44027;BME280;29696;55.698;37.460;2022-07-15T05:24:43;98600.09;;;40.44;21.68
44027;BME280;29696;55.698;37.460;2022-07-15T05:27:12;98598.13;;;40.76;20.77
44027;BME280;29696;55.698;37.460;2022-07-15T05:29:38;98599.56;;;41.21;20.32
44027;BME280;29696;55.698;37.460;2022-07-15T05:32:05;98599.19;;;41.42;20.34
44027;BME280;29696;55.698;37.460;2022-07-15T05:34:32;98595.97;;;41.99;19.98
44027;BME280;29696;55.698;37.460;2022-07-15T05:36:58;98593.81;;;42.31;19.51
44027;BME280;29696;55.698;37.460;2022-07-15T05:39:25;98585.75;;;42.49;19.16
44027;BME280;29696;55.698;37.460;2022-07-15T05:41:54;98595.78;;;42.80;19.00
44027;BME280;29696;55.698;37.460;2022-07-15T05:44:20;98605.16;;;43.25;17.96
44027;BME280;29696;55.698;37.460;2022-07-15T05:46:49;98591.53;;;43.16;17.88
44027;BME280;29696;55.698;37.460;2022-07-15T05:49:17;98596.56;;;43.37;18.27
44027;BME280;29696;55.698;37.460;2022-07-15T05:51:45;98590.06;;;43.26;18.51
44027;BME280;29696;55.698;37.460;2022-07-15T05:54:11;98591.03;;;43.71;17.38
44027;BME280;29696;55.698;37.460;2022-07-15T05:56:41;98605.44;;;44.17;17.25
44027;BME280;29696;55.698;37.460;2022-07-15T05:59:10;98600.25;;;44.16;17.39
44027;BME280;29696;55.698;37.460;2022-07-15T06:01:37;98599.03;;;44.58;16.61
44027;BME280;29696;55.698;37.460;2022-07-15T06:04:03;98599.97;;;44.76;16.77
44027;BME280;29696;55.698;37.460;2022-07-15T06:06:29;98594.53;;;44.98;16.10
44027;BME280;29696;55.698;37.460;2022-07-15T06:08:58;98589.53;;;45.32;16.21
44027;BME280;29696;55.698;37.460;2022-07-15T06:11:24;98587.22;;;45.45;15.65
44027;BME280;29696;55.698;37.460;2022-07-15T06:13:52;98601.22;;;45.59;15.76
44027;BME280;29696;55.698;37.460;2022-07-15T06:16:19;98591.97;;;45.44;15.66
44027;BME280;29696;55.698;37.460;2022-07-15T06:18:45;98587.88;;;45.13;16.00
44027;BME280;29696;55.698;37.460;2022-07-15T06:21:11;98588.63;;;44.07;17.21
44027;BME280;29696;55.698;37.460;2022-07-15T06:23:38;98588.75;;;44.21;16.24
44027;BME280;29696;55.698;37.460;2022-07-15T06:26:04;98591.19;;;44.26;16.12
44027;BME280;29696;55.698;37.460;2022-07-15T06:28:31;98584.66;;;44.08;16.29
44027;BME280;29696;55.698;37.460;2022-07-15T06:30:57;98587.69;;;43.92;16.55
44027;BME280;29696;55.698;37.460;2022-07-15T06:33:24;98572.59;;;42.99;17.26
44027;BME280;29696;55.698;37.460;2022-07-15T06:35:51;98578.19;;;41.41;18.52
44027;BME280;29696;55.698;37.460;2022-07-15T06:38:17;98571.81;;;40.67;19.29
44027;BME280;29696;55.698;37.460;2022-07-15T06:40:44;98567.91;;;38.34;21.70
44027;BME280;29696;55.698;37.460;2022-07-15T06:43:11;98576.38;;;36.87;23.60
44027;BME280;29696;55.698;37.460;2022-07-15T06:45:56;98573.63;;;36.87;24.70
44027;BME280;29696;55.698;37.460;2022-07-15T06:48:22;98579.09;;;36.19;24.60
44027;BME280;29696;55.698;37.460;2022-07-15T06:50:49;98575.88;;;38.35;23.41
44027;BME280;29696;55.698;37.460;2022-07-15T06:53:15;98586.34;;;38.42;22.83
44027;BME280;29696;55.698;37.460;2022-07-15T06:55:41;98586.94;;;38.85;22.14
44027;BME280;29696;55.698;37.460;2022-07-15T06:58:07;98591.66;;;39.93;20.77
44027;BME280;29696;55.698;37.460;2022-07-15T07:00:35;98590.13;;;41.06;20.05
44027;BME280;29696;55.698;37.460;2022-07-15T07:03:02;98595.22;;;41.59;18.76
44027;BME280;29696;55.698;37.460;2022-07-15T07:05:28;98606.31;;;40.89;19.14
44027;BME280;29696;55.698;37.460;2022-07-15T07:07:56;98588.97;;;40.92;19.43
44027;BME280;29696;55.698;37.460;2022-07-15T07:10:24;98596.53;;;41.65;18.49
44027;BME280;29696;55.698;37.460;2022-07-15T07:12:52;98603.16;;;41.41;18.54
44027;BME280;29696;55.698;37.460;2022-07-15T07:15:19;98597.44;;;40.48;20.17
44027;BME280;29696;55.698;37.460;2022-07-15T07:17:47;98606.38;;;40.57;19.63
44027;BME280;29696;55.698;37.460;2022-07-15T07:20:13;98607.81;;;39.91;20.20
44027;BME280;29696;55.698;37.460;2022-07-15T07:22:39;98607.22;;;41.09;19.18
44027;BME280;29696;55.698;37.460;2022-07-15T07:25:06;98607.28;;;42.09;18.49
44027;BME280;29696;55.698;37.460;2022-07-15T07:27:33;98613.22;;;43.07;18.21
44027;BME280;29696;55.698;37.460;2022-07-15T07:29:59;98617.00;;;44.19;16.88
44027;BME280;29696;55.698;37.460;2022-07-15T07:32:30;98611.72;;;44.52;16.57
44027;BME280;29696;55.698;37.460;2022-07-15T07:34:56;98614.97;;;43.15;17.92
44027;BME280;29696;55.698;37.460;2022-07-15T07:37:22;98623.31;;;43.15;17.49
44027;BME280;29696;55.698;37.460;2022-07-15T07:39:49;98623.63;;;44.08;16.79
44027;BME280;29696;55.698;37.460;2022-07-15T07:42:16;98636.56;;;43.29;16.32
44027;BME280;29696;55.698;37.460;2022-07-15T07:44:42;98629.69;;;41.42;18.03
44027;BME280;29696;55.698;37.460;2022-07-15T07:47:09;98616.81;;;41.89;17.61
44027;BME280;29696;55.698;37.460;2022-07-15T07:49:35;98618.16;;;40.70;18.75
44027;BME280;29696;55.698;37.460;2022-07-15T07:52:02;98612.78;;;38.68;20.52
44027;BME280;29696;55.698;37.460;2022-07-15T07:54:29;98612.06;;;39.20;20.20
44027;BME280;29696;55.698;37.460;2022-07-15T07:56:56;98601.16;;;37.92;21.62
44027;BME280;29696;55.698;37.460;2022-07-15T07:59:22;98606.97;;;38.11;20.97
44027;BME280;29696;55.698;37.460;2022-07-15T08:01:48;98600.41;;;39.39;19.80
44027;BME280;29696;55.698;37.460;2022-07-15T08:04:15;98607.31;;;38.92;20.13
44027;BME280;29696;55.698;37.460;2022-07-15T08:06:41;98603.78;;;39.60;19.18
44027;BME280;29696;55.698;37.460;2022-07-15T08:09:08;98589.94;;;40.64;17.51
44027;BME280;29696;55.698;37.460;2022-07-15T08:11:34;98584.22;;;39.13;19.16
44027;BME280;29696;55.698;37.460;2022-07-15T08:14:00;98574.66;;;37.66;21.54
44027;BME280;29696;55.698;37.460;2022-07-15T08:16:27;98579.84;;;37.05;21.92
44027;BME280;29696;55.698;37.460;2022-07-15T08:18:53;98596.56;;;36.91;22.41
44027;BME280;29696;55.698;37.460;2022-07-15T08:21:19;98596.66;;;35.19;23.77
44027;BME280;29696;55.698;37.460;2022-07-15T08:23:46;98620.38;;;34.58;24.43
44027;BME280;29696;55.698;37.460;2022-07-15T08:26:12;98617.59;;;33.73;25.44
44027;BME280;29696;55.698;37.460;2022-07-15T08:28:44;98625.69;;;32.78;26.48
44027;BME280;29696;55.698;37.460;2022-07-15T08:31:11;98618.03;;;31.68;27.38
44027;BME280;29696;55.698;37.460;2022-07-15T08:33:38;98623.69;;;32.37;26.61
44027;BME280;29696;55.698;37.460;2022-07-15T08:36:05;98623.66;;;33.47;25.39
44027;BME280;29696;55.698;37.460;2022-07-15T08:38:31;98627.06;;;34.74;23.49
44027;BME280;29696;55.698;37.460;2022-07-15T08:40:57;98634.13;;;35.32;22.63
44027;BME280;29696;55.698;37.460;2022-07-15T08:43:24;98623.97;;;35.15;23.01
44027;BME280;29696;55.698;37.460;2022-07-15T08:45:50;98642.56;;;34.79;24.05
44027;BME280;29696;55.698;37.460;2022-07-15T08:48:17;98639.97;;;34.11;23.94
44027;BME280;29696;55.698;37.460;2022-07-15T08:50:44;98648.78;;;32.71;25.23
44027;BME280;29696;55.698;37.460;2022-07-15T08:53:11;98643.81;;;31.80;27.46
44027;BME280;29696;55.698;37.460;2022-07-15T08:55:37;98640.91;;;31.15;28.54
44027;BME280;29696;55.698;37.460;2022-07-15T08:58:04;98645.38;;;30.58;29.90
44027;BME280;29696;55.698;37.460;2022-07-15T09:00:30;98645.00;;;30.11;31.12
44027;BME280;29696;55.698;37.460;2022-07-15T09:02:58;98648.97;;;29.50;29.62
44027;BME280;29696;55.698;37.460;2022-07-15T09:05:31;98660.94;;;28.89;30.94
44027;BME280;29696;55.698;37.460;2022-07-15T09:08:18;98661.72;;;29.00;30.47
44027;BME280;29696;55.698;37.460;2022-07-15T09:11:05;98667.00;;;28.56;29.87
44027;BME280;29696;55.698;37.460;2022-07-15T09:13:57;98666.78;;;28.06;29.83
44027;BME280;29696;55.698;37.460;2022-07-15T09:16:24;98657.63;;;27.14;31.68
44027;BME280;29696;55.698;37.460;2022-07-15T09:18:52;98652.13;;;26.93;32.44
44027;BME280;29696;55.698;37.460;2022-07-15T09:21:38;98662.25;;;27.18;32.71
44027;BME280;29696;55.698;37.460;2022-07-15T09:24:18;98661.13;;;27.09;32.78
44027;BME280;29696;55.698;37.460;2022-07-15T09:26:44;98650.47;;;26.87;32.42
44027;BME280;29696;55.698;37.460;2022-07-15T09:29:14;98660.50;;;26.86;33.95
44027;BME280;29696;55.698;37.460;2022-07-15T09:32:00;98661.31;;;26.87;33.61
44027;BME280;29696;55.698;37.460;2022-07-15T09:35:02;98661.41;;;27.13;33.21
44027;BME280;29696;55.698;37.460;2022-07-15T09:37:29;98650.97;;;26.79;33.39
44027;BME280;29696;55.698;37.460;2022-07-15T09:39:56;98656.63;;;26.77;33.84
44027;BME280;29696;55.698;37.460;2022-07-15T09:42:23;98661.19;;;26.67;33.16
44027;BME280;29696;55.698;37.460;2022-07-15T09:44:50;98653.19;;;26.45;34.34
44027;BME280;29696;55.698;37.460;2022-07-15T09:47:20;98657.78;;;26.07;34.61
44027;BME280;29696;55.698;37.460;2022-07-15T09:49:48;98650.28;;;25.82;34.17
44027;BME280;29696;55.698;37.460;2022-07-15T09:52:15;98654.84;;;25.81;34.45
44027;BME280;29696;55.698;37.460;2022-07-15T09:54:48;98663.16;;;26.02;34.75
44027;BME280;29696;55.698;37.460;2022-07-15T09:57:18;98653.41;;;26.01;33.79
44027;BME280;29696;55.698;37.460;2022-07-15T09:59:46;98658.84;;;26.01;34.50
44027;BME280;29696;55.698;37.460;2022-07-15T10:02:13;98663.16;;;26.02;34.54
44027;BME280;29696;55.698;37.460;2022-07-15T10:04:40;98662.09;;;26.03;34.69
44027;BME280;29696;55.698;37.460;2022-07-15T10:07:07;98663.78;;;26.09;35.36
44027;BME280;29696;55.698;37.460;2022-07-15T10:09:35;98671.09;;;26.13;33.56
44027;BME280;29696;55.698;37.460;2022-07-15T10:12:16;98655.50;;;26.26;33.24
44027;BME280;29696;55.698;37.460;2022-07-15T10:15:25;98672.78;;;26.19;34.20
44027;BME280;29696;55.698;37.460;2022-07-15T10:18:22;98678.41;;;26.13;33.96
44027;BME280;29696;55.698;37.460;2022-07-15T10:30:23;98658.06;;;25.78;36.48
44027;BME280;29696;55.698;37.460;2022-07-15T10:36:03;98669.53;;;25.85;35.80
44027;BME280;29696;55.698;37.460;2022-07-15T10:39:00;98658.91;;;25.79;35.81
44027;BME280;29696;55.698;37.460;2022-07-15T10:41:56;98673.13;;;25.69;35.71
44027;BME280;29696;55.698;37.460;2022-07-15T10:44:25;98673.25;;;25.30;36.00
44027;BME280;29696;55.698;37.460;2022-07-15T10:59:51;98692.22;;;25.84;36.81
44027;BME280;29696;55.698;37.460;2022-07-15T11:02:19;98685.91;;;25.73;36.86
44027;BME280;29696;55.698;37.460;2022-07-15T11:04:47;98684.06;;;25.79;37.20
44027;BME280;29696;55.698;37.460;2022-07-15T11:07:34;98677.22;;;25.99;37.50
44027;BME280;29696;55.698;37.460;2022-07-15T11:10:22;98680.09;;;25.87;37.16
44027;BME280;29696;55.698;37.460;2022-07-15T11:13:09;98691.00;;;25.70;37.64
44027;BME280;29696;55.698;37.460;2022-07-15T11:15:35;98679.75;;;25.29;37.81
44027;BME280;29696;55.698;37.460;2022-07-15T11:18:02;98675.56;;;25.16;38.09
44027;BME280;29696;55.698;37.460;2022-07-15T11:20:34;98690.69;;;25.17;38.12
44027;BME280;29696;55.698;37.460;2022-07-15T11:23:01;98681.97;;;24.93;39.19
44027;BME280;29696;55.698;37.460;2022-07-15T11:28:19;98681.19;;;24.93;40.23
44027;BME280;29696;55.698;37.460;2022-07-15T11:30:49;98689.97;;;25.05;38.72
44027;BME280;29696;55.698;37.460;2022-07-15T11:33:24;98707.22;;;25.21;38.97
44027;BME280;29696;55.698;37.460;2022-07-15T11:35:55;98684.97;;;25.14;38.94
44027;BME280;29696;55.698;37.460;2022-07-15T11:38:27;98692.16;;;25.25;38.04
44027;BME280;29696;55.698;37.460;2022-07-15T11:40:56;98698.09;;;25.49;38.33
44027;BME280;29696;55.698;37.460;2022-07-15T11:43:41;98694.56;;;25.76;37.09
44027;BME280;29696;55.698;37.460;2022-07-15T11:46:28;98699.00;;;25.82;36.94
44027;BME280;29696;55.698;37.460;2022-07-15T11:48:59;98693.66;;;25.65;36.77
44027;BME280;29696;55.698;37.460;2022-07-15T11:51:28;98706.06;;;25.61;36.45
44027;BME280;29696;55.698;37.460;2022-07-15T11:53:56;98703.00;;;25.52;36.38
44027;BME280;29696;55.698;37.460;2022-07-15T11:56:24;98701.47;;;25.39;37.11
44027;BME280;29696;55.698;37.460;2022-07-15T11:58:53;98704.38;;;25.33;37.45
44027;BME280;29696;55.698;37.460;2022-07-15T12:01:30;98703.06;;;25.35;36.49
44027;BME280;29696;55.698;37.460;2022-07-15T12:03:57;98697.25;;;25.48;36.00
44027;BME280;29696;55.698;37.460;2022-07-15T12:06:32;98701.72;;;25.87;35.97
44027;BME280;29696;55.698;37.460;2022-07-15T12:09:00;98694.69;;;25.86;34.38
44027;BME280;29696;55.698;37.460;2022-07-15T12:11:30;98698.28;;;25.91;34.19
44027;BME280;29696;55.698;37.460;2022-07-15T12:14:00;98696.31;;;25.87;34.49
44027;BME280;29696;55.698;37.460;2022-07-15T12:16:30;98706.91;;;25.66;34.88
44027;BME280;29696;55.698;37.460;2022-07-15T12:19:02;98710.09;;;25.58;35.12
44027;BME280;29696;55.698;37.460;2022-07-15T12:21:29;98705.78;;;25.62;35.83
44027;BME280;29696;55.698;37.460;2022-07-15T12:24:04;98713.97;;;25.67;36.40
44027;BME280;29696;55.698;37.460;2022-07-15T12:26:32;98720.19;;;25.68;35.52
44027;BME280;29696;55.698;37.460;2022-07-15T12:29:01;98724.78;;;25.67;35.01
44027;BME280;29696;55.698;37.460;2022-07-15T12:31:31;98716.88;;;25.61;34.75
44027;BME280;29696;55.698;37.460;2022-07-15T12:33:58;98721.72;;;25.37;35.18
44027;BME280;29696;55.698;37.460;2022-07-15T12:36:27;98720.13;;;25.14;35.83
44027;BME280;29696;55.698;37.460;2022-07-15T12:39:20;98733.81;;;25.29;36.19
44027;BME280;29696;55.698;37.460;2022-07-15T12:42:01;98732.31;;;25.16;36.46
44027;BME280;29696;55.698;37.460;2022-07-15T12:44:30;98736.75;;;24.89;37.17
44027;BME280;29696;55.698;37.460;2022-07-15T12:47:06;98732.88;;;25.18;35.50
44027;BME280;29696;55.698;37.460;2022-07-15T12:50:05;98734.44;;;25.58;35.03
44027;BME280;29696;55.698;37.460;2022-07-15T12:52:38;98733.88;;;25.56;34.81
44027;BME280;29696;55.698;37.460;2022-07-15T12:55:16;98732.28;;;25.60;34.50
44027;BME280;29696;55.698;37.460;2022-07-15T12:57:43;98724.75;;;25.18;34.25
44027;BME280;29696;55.698;37.460;2022-07-15T13:00:13;98739.44;;;25.05;35.23
44027;BME280;29696;55.698;37.460;2022-07-15T13:03:03;98728.31;;;25.02;35.42
44027;BME280;29696;55.698;37.460;2022-07-15T13:05:56;98737.84;;;24.88;36.00
44027;BME280;29696;55.698;37.460;2022-07-15T13:08:28;98737.41;;;24.57;36.88
44027;BME280;29696;55.698;37.460;2022-07-15T13:11:00;98737.41;;;24.57;36.96
44027;BME280;29696;55.698;37.460;2022-07-15T13:13:30;98741.50;;;24.59;36.85
44027;BME280;29696;55.698;37.460;2022-07-15T13:15:57;98738.72;;;24.54;37.11
44027;BME280;29696;55.698;37.460;2022-07-15T13:18:28;98740.56;;;24.37;37.06
44027;BME280;29696;55.698;37.460;2022-07-15T13:20:56;98735.91;;;24.32;38.04
44027;BME280;29696;55.698;37.460;2022-07-15T13:23:23;98728.63;;;24.33;37.47
44027;BME280;29696;55.698;37.460;2022-07-15T13:25:50;98729.19;;;24.35;37.79
44027;BME280;29696;55.698;37.460;2022-07-15T13:28:17;98742.22;;;24.38;37.92
44027;BME280;29696;55.698;37.460;2022-07-15T13:30:44;98734.19;;;24.26;37.87